createdAt,value
2022-08-18T00:02:31.855Z,76
2022-08-18T00:08:27.488Z,75.2
2022-08-18T00:14:25.027Z,75.8
2022-08-18T00:20:17.004Z,76.2
2022-08-18T00:26:10.578Z,76
2022-08-18T00:32:02.690Z,76.8
2022-08-18T00:37:54.576Z,75.8
2022-08-18T00:43:47.083Z,77.8
2022-08-18T00:49:38.270Z,80.9
2022-08-18T00:55:29.988Z,82.8
2022-08-18T01:01:23.011Z,79.5
2022-08-18T01:07:14.126Z,79.2
2022-08-18T01:13:07.658Z,79.6
2022-08-18T01:19:00.101Z,78
2022-08-18T01:24:52.030Z,80.1
2022-08-18T01:30:44.128Z,80.6
2022-08-18T01:36:35.823Z,84.2
2022-08-18T01:42:28.614Z,81.4
2022-08-18T01:48:22.694Z,81.2
2022-08-18T01:54:14.891Z,80.4
2022-08-18T02:00:07.614Z,81.4
2022-08-18T02:06:06.592Z,82.1
2022-08-18T02:12:02.044Z,82
2022-08-18T02:17:55.382Z,82.1
2022-08-18T02:23:56.041Z,80.3
2022-08-18T02:29:47.527Z,82.8
2022-08-18T02:35:39.204Z,81.8
2022-08-18T02:41:31.359Z,81.7
2022-08-18T02:47:22.790Z,83.3
2022-08-18T02:53:20.472Z,83
2022-08-18T02:59:12.330Z,83
2022-08-18T03:05:05.218Z,82.8
2022-08-18T03:11:02.371Z,84.8
2022-08-18T03:16:56.270Z,83
2022-08-18T03:22:46.746Z,82.7
2022-08-18T03:28:38.358Z,83.2
2022-08-18T03:34:26.638Z,84.6
2022-08-18T03:40:18.598Z,84.2
2022-08-18T03:46:08.029Z,84.3
2022-08-18T03:51:59.668Z,84.9
2022-08-18T03:57:53.396Z,83.9
2022-08-18T04:03:44.793Z,84.7
2022-08-18T04:09:39.281Z,86.8
2022-08-18T04:15:30.081Z,84.8
2022-08-18T04:21:21.877Z,85.5
2022-08-18T04:27:14.403Z,84.6
2022-08-18T04:33:06.885Z,85.4
2022-08-18T04:39:00.972Z,84.5
2022-08-18T04:44:52.475Z,86.2
2022-08-18T04:50:44.156Z,85
2022-08-18T04:56:35.292Z,84
2022-08-18T05:02:27.081Z,85.6
2022-08-18T05:08:18.454Z,86
2022-08-18T05:14:07.105Z,85.7
2022-08-18T05:19:59.767Z,85.2
2022-08-18T05:25:54.742Z,88.5
2022-08-18T05:31:47.362Z,90.2
2022-08-18T05:37:38.573Z,88.2
2022-08-18T05:43:32.105Z,87.9
2022-08-18T05:49:31.979Z,88.4
2022-08-18T05:55:22.739Z,88.3
2022-08-18T06:01:13.696Z,90.6
2022-08-18T06:07:03.873Z,91.4
2022-08-18T06:12:54.908Z,89.1
2022-08-18T06:18:46.411Z,90.2
2022-08-18T06:24:36.510Z,90
2022-08-18T06:30:27.215Z,93.2
2022-08-18T06:36:21.557Z,94.3
2022-08-18T06:42:15.535Z,94
2022-08-18T06:48:17.018Z,95.4
2022-08-18T06:54:05.940Z,94.1
2022-08-18T06:59:57.429Z,94.1
2022-08-18T07:05:47.866Z,93.6
2022-08-18T07:11:41.320Z,94.3
2022-08-18T07:17:45.338Z,94.3
2022-08-18T07:23:36.422Z,94.9
2022-08-18T07:29:26.622Z,93.7
2022-08-18T07:35:17.364Z,93.9
2022-08-18T07:41:07.424Z,93.7
2022-08-18T07:46:57.875Z,93.4
2022-08-18T07:52:50.914Z,90.8
2022-08-18T07:58:43.618Z,92
2022-08-18T08:04:36.895Z,94.4
2022-08-18T08:10:30.242Z,93.9
2022-08-18T08:16:24.180Z,92.3
2022-08-18T08:22:17.534Z,94.7
2022-08-18T08:28:07.894Z,92
2022-08-18T08:34:09.741Z,93.5
2022-08-18T08:40:04.027Z,93.9
2022-08-18T08:45:57.140Z,93.2
2022-08-18T08:51:50.143Z,91.6
2022-08-18T08:57:45.292Z,91.2
2022-08-18T09:03:37.061Z,93.1
2022-08-18T09:09:27.629Z,92.5
2022-08-18T09:15:16.845Z,90.2
2022-08-18T09:21:07.851Z,91
2022-08-18T09:26:59.669Z,88.3
2022-08-18T09:32:53.537Z,88.6
2022-08-18T09:38:47.122Z,88.9
2022-08-18T09:44:44.375Z,87.2
2022-08-18T10:11:09.187Z,85.3
2022-08-18T10:17:29.438Z,83.8
2022-08-18T10:31:06.006Z,83.5
2022-08-18T10:37:32.021Z,82.9
2022-08-18T10:44:21.034Z,82
2022-08-18T10:50:34.408Z,84.7
2022-08-18T11:03:50.782Z,82.7
2022-08-18T11:17:02.053Z,79.6
2022-08-18T11:29:53.940Z,77.7
2022-08-18T11:43:12.036Z,75.4
2022-08-18T11:49:34.265Z,76.2
2022-08-18T13:10:47.037Z,66
2022-08-18T13:17:14.895Z,65.3
2022-08-18T13:23:29.981Z,64.6
2022-08-18T13:29:25.353Z,65.6
2022-08-18T13:35:17.830Z,65.2
2022-08-18T13:41:34.266Z,64
2022-08-18T13:47:31.532Z,64.2
2022-08-18T13:53:33.556Z,64.1
2022-08-18T14:00:27.908Z,64
2022-08-18T14:06:25.510Z,63.5
2022-08-18T14:12:29.703Z,63.7
2022-08-18T14:18:32.129Z,62.9
2022-08-18T14:24:26.627Z,62
2022-08-18T14:30:23.004Z,62.7
2022-08-18T14:36:12.645Z,61.8
2022-08-18T14:42:08.337Z,61.3
2022-08-18T14:48:10.910Z,62.8
2022-08-18T14:54:03.467Z,62.3
2022-08-18T15:00:05.638Z,62
2022-08-18T15:06:07.034Z,61.6
2022-08-18T15:12:16.375Z,60.5
2022-08-18T15:18:11.420Z,60.9
2022-08-18T15:24:21.058Z,60.9
2022-08-18T15:30:21.437Z,60.4
2022-08-18T15:36:18.335Z,60.5
2022-08-18T15:42:18.445Z,59.7
2022-08-18T15:48:14.103Z,58.1
2022-08-18T15:54:05.870Z,59.1
2022-08-18T16:00:00.458Z,58.6
2022-08-18T16:05:54.151Z,58.5
2022-08-18T16:11:44.703Z,58.6
2022-08-18T16:17:33.950Z,59.1
2022-08-18T16:23:23.473Z,59.6
2022-08-18T16:29:12.864Z,58
2022-08-18T16:35:02.503Z,58.3
2022-08-18T16:40:52.049Z,57.6
2022-08-18T16:46:42.075Z,57.3
2022-08-18T16:52:31.307Z,57.5
2022-08-18T16:58:21.045Z,56.2
2022-08-18T17:04:20.378Z,56.6
2022-08-18T17:10:09.643Z,56.5
2022-08-18T17:15:59.073Z,56.3
2022-08-18T17:21:48.748Z,56.5
2022-08-18T17:27:39.711Z,56.5
2022-08-18T17:33:36.787Z,57.2
2022-08-18T17:39:26.062Z,57.9
2022-08-18T17:45:23.568Z,57.9
2022-08-18T17:51:12.387Z,58.2
2022-08-18T17:57:02.084Z,57.8
2022-08-18T18:02:51.534Z,58.2
2022-08-18T18:08:41.219Z,58.6
2022-08-18T18:14:30.431Z,58.4
2022-08-18T18:20:20.465Z,57.6
2022-08-18T18:26:11.002Z,57.9
2022-08-18T18:32:00.339Z,58.4
2022-08-18T18:37:50.730Z,58.3
2022-08-18T18:43:40.625Z,58.5
2022-08-18T18:49:30.287Z,59.6
2022-08-18T18:55:19.446Z,60.2
2022-08-18T19:01:08.720Z,60.8
2022-08-18T19:06:58.495Z,61
2022-08-18T19:12:47.305Z,61.1
2022-08-18T19:18:36.461Z,60.9
2022-08-18T19:24:29.698Z,61.1
2022-08-18T19:30:19.268Z,61.4
2022-08-18T19:36:21.664Z,61.7
2022-08-18T19:42:19.376Z,62.7
2022-08-18T19:48:11.058Z,63.4
2022-08-18T19:54:06.738Z,64.4
2022-08-18T20:00:04.895Z,65
2022-08-18T20:05:55.571Z,65.3
2022-08-18T20:12:20.586Z,65.9
2022-08-18T20:18:12.083Z,67.5
2022-08-18T20:24:03.603Z,67
2022-08-18T20:29:59.418Z,67.4
2022-08-18T20:35:50.866Z,68.4
2022-08-18T20:41:42.831Z,68.3
2022-08-18T20:47:33.584Z,69
2022-08-18T20:53:26.369Z,69.5
2022-08-18T20:59:23.275Z,70.7
2022-08-18T21:05:27.494Z,70.8
2022-08-18T21:12:30.349Z,71.5
2022-08-18T21:18:20.368Z,71.6
2022-08-18T21:24:11.476Z,73.7
2022-08-18T21:30:02.401Z,73.4
2022-08-18T21:35:53.438Z,73.2
2022-08-18T21:41:46.492Z,74
2022-08-18T21:47:37.506Z,73.9
2022-08-18T21:53:29.966Z,72.9
2022-08-18T21:59:20.445Z,72.9
2022-08-18T22:05:11.608Z,73.1
2022-08-18T22:11:04.709Z,74.3
2022-08-18T22:16:55.638Z,74.1
2022-08-18T22:22:46.940Z,76.2
2022-08-18T22:28:38.240Z,76
2022-08-18T22:34:30.123Z,77
2022-08-18T22:40:23.720Z,76.8
2022-08-18T22:46:24.470Z,75.9
2022-08-18T22:52:15.139Z,76.1
2022-08-18T22:58:11.266Z,78.1
2022-08-18T23:04:16.701Z,76.8
2022-08-18T23:10:16.142Z,77.7
2022-08-18T23:16:34.075Z,78.1
2022-08-18T23:22:30.698Z,77.2
2022-08-18T23:28:36.801Z,77.9
2022-08-18T23:47:14.283Z,76.1
2022-08-18T23:53:26.989Z,76.3
